Indianapolis Mount Comfort, IN

1:43 PM EST on February 20, 2018 (GMT -0500)
Mount Comfort

Weather History for KMQJ - May, 2014

Change the Weather History Date:

Thursday, May 1, 2014

  Actual Average (KEYE) Record (KEYE)
Temperature  
Mean Temperature 48 °F -  
Max Temperature 55 °F 67 °F 82 °F (2007)
Min Temperature 41 °F 47 °F 39 °F (2005)
Degree Days  
Heating Degree Days 17    
Moisture  
Dew Point 39 °F    
Average Humidity 71    
Maximum Humidity 93    
Minimum Humidity 54    
Precipitation  
Precipitation 0.00 in - - ()
Sea Level Pressure  
Sea Level Pressure 29.87 in    
Wind  
Wind Speed 11 mph (SW)    
Max Wind Speed 24 mph    
Max Gust Speed 33 mph    
Visibility 10 miles    
Events      
Averages and records for this station are not official NWS values.
T = Trace of Precipitation, MM = Missing Value Source: NWS Daily Summary

Daily Weather History Graph

Daily Weather History Graph

Search for Another Location

Airport or City:

Trip Planner

Search our weather history database for the weather conditions in past years. The results will help you decide how hot, cold, wet, or windy it might be!

Date:

Astronomy

May. 01, 2014 Rise Set
Actual Time 6:43 AM EDT 8:38 PM EDT
Civil Twilight 6:14 AM EDT 9:07 PM EDT
Nautical Twilight 5:39 AM EDT 9:43 PM EDT
Astronomical Twilight 5:00 AM EDT 10:21 PM EDT
Moon 8:31 AM EDT (5/1) 11:10 PM EDT (5/1)
Length of Visible Light 14h 52m
Length of Day
13h 54m
Waxing Crescent, 6% of the Moon is Illuminated
May 1
Waxing Crescent
May 6
First Quarter
May 14
Full
May 21
Last Quarter
May 28
New

Hourly Weather History & Observations

Time (EDT) Temp. Windchill Dew Point Humidity Pressure Visibility Wind Dir Wind Speed Gust Speed Precip Events Conditions
12:14 AM 42.8 °F 39.3 °F 39.2 °F 87% 29.90 in 10.0 mi SW 5.8 mph - N/A   Clear
12:35 AM 42.8 °F 40.1 °F 39.2 °F 87% 29.89 in 10.0 mi SW 4.6 mph - N/A   Clear
12:55 AM 42.8 °F 38.6 °F 39.2 °F 87% 29.89 in 10.0 mi SW 6.9 mph - N/A   Clear
1:14 AM 42.8 °F 39.3 °F 39.2 °F 87% 29.89 in 10.0 mi SSW 5.8 mph - N/A   Clear
1:35 AM 42.8 °F 39.3 °F 39.2 °F 87% 29.88 in 10.0 mi SSW 5.8 mph - N/A   Clear
1:55 AM 42.8 °F 38.6 °F 39.2 °F 87% 29.88 in 10.0 mi SW 6.9 mph - N/A   Clear
2:15 AM 42.8 °F 38.6 °F 39.2 °F 87% 29.87 in 10.0 mi SSW 6.9 mph - N/A   Clear
2:35 AM 42.8 °F 38.6 °F 39.2 °F 87% 29.87 in 10.0 mi SSW 6.9 mph - N/A   Clear
2:55 AM 42.8 °F 39.3 °F 39.2 °F 87% 29.86 in 10.0 mi SSW 5.8 mph - N/A   Clear
3:15 AM 41.0 °F 36.4 °F 39.2 °F 93% 29.86 in 10.0 mi SSW 6.9 mph - N/A   Clear
3:35 AM 41.0 °F 36.4 °F 39.2 °F 93% 29.86 in 10.0 mi SSW 6.9 mph - N/A   Scattered Clouds
3:54 AM 42.8 °F 38.6 °F 39.2 °F 87% 29.85 in 10.0 mi South 6.9 mph - N/A   Mostly Cloudy
4:15 AM 42.8 °F 39.3 °F 39.2 °F 87% 29.85 in 10.0 mi South 5.8 mph - N/A   Mostly Cloudy
4:35 AM 42.8 °F 39.3 °F 39.2 °F 87% 29.85 in 10.0 mi South 5.8 mph - N/A   Mostly Cloudy
4:54 AM 42.8 °F 38.6 °F 39.2 °F 87% 29.85 in 10.0 mi SSW 6.9 mph - N/A   Mostly Cloudy
5:15 AM 42.8 °F 37.5 °F 39.2 °F 87% 29.85 in 10.0 mi SSW 9.2 mph - N/A   Mostly Cloudy
5:35 AM 42.8 °F 37.5 °F 39.2 °F 87% 29.85 in 7.0 mi SSW 9.2 mph - N/A   Overcast
5:55 AM 44.6 °F 40.7 °F 41.0 °F 87% 29.85 in 10.0 mi SSW 6.9 mph - N/A   Mostly Cloudy
6:15 AM 42.8 °F 38.6 °F 41.0 °F 93% 29.84 in 10.0 mi South 6.9 mph - N/A   Mostly Cloudy
6:34 AM 42.8 °F 38.6 °F 39.2 °F 87% 29.85 in 10.0 mi SSW 6.9 mph - N/A   Scattered Clouds
6:55 AM 42.8 °F 39.3 °F 41.0 °F 93% 29.85 in 10.0 mi South 5.8 mph - N/A   Scattered Clouds
7:15 AM 42.8 °F 38.0 °F 39.2 °F 87% 29.85 in 10.0 mi SSW 8.1 mph - N/A   Scattered Clouds
7:35 AM 42.8 °F 37.5 °F 39.2 °F 87% 29.85 in 10.0 mi SSW 9.2 mph - N/A   Scattered Clouds
8:14 AM 46.4 °F 41.1 °F 41.0 °F 81% 29.86 in 10.0 mi SW 11.5 mph - N/A   Clear
8:35 AM 46.4 °F 40.4 °F 41.0 °F 81% 29.85 in 10.0 mi SW 13.8 mph - N/A   Clear
8:55 AM 48.2 °F - 41.0 °F 76% 29.86 in 10.0 mi SW 11.5 mph 20.7 mph N/A   Clear
9:14 AM 48.2 °F - 41.0 °F 76% 29.86 in 10.0 mi WSW 16.1 mph 23.0 mph N/A   Clear
9:35 AM 50.0 °F - 41.0 °F 71% 29.86 in 10.0 mi SW 13.8 mph - N/A   Scattered Clouds
9:55 AM 50.0 °F - 39.2 °F 66% 29.85 in 10.0 mi WSW 12.7 mph 24.2 mph N/A   Scattered Clouds
10:15 AM 50.0 °F - 39.2 °F 66% 29.85 in 10.0 mi WSW 15.0 mph 26.5 mph N/A   Mostly Cloudy
10:55 AM 51.8 °F - 39.2 °F 62% 29.85 in 10.0 mi WSW 17.3 mph 20.7 mph N/A   Scattered Clouds
11:15 AM 53.6 °F - 39.2 °F 58% 29.85 in 10.0 mi SW 17.3 mph 27.6 mph N/A   Mostly Cloudy
11:35 AM 51.8 °F - 37.4 °F 58% 29.85 in 10.0 mi WSW 18.4 mph 24.2 mph N/A   Mostly Cloudy
11:54 AM 51.8 °F - 37.4 °F 58% 29.85 in 10.0 mi WSW 17.3 mph 25.3 mph N/A   Scattered Clouds
12:15 PM 51.8 °F - 37.4 °F 58% 29.85 in 10.0 mi WSW 18.4 mph 25.3 mph N/A   Scattered Clouds
12:35 PM 53.6 °F - 37.4 °F 54% 29.85 in 10.0 mi SW 23.0 mph 27.6 mph N/A   Scattered Clouds
12:55 PM 53.6 °F - 37.4 °F 54% 29.85 in 10.0 mi WSW 20.7 mph 29.9 mph N/A   Scattered Clouds
1:15 PM 53.6 °F - 37.4 °F 54% 29.85 in 10.0 mi SW 18.4 mph 26.5 mph N/A   Scattered Clouds
1:34 PM 53.6 °F - 39.2 °F 58% 29.85 in 10.0 mi SW 15.0 mph 26.5 mph N/A   Scattered Clouds
1:52 PM 53.6 °F - 37.4 °F 54% - 10.0 mi North - - N/A   Scattered Clouds
2:13 PM 53.6 °F - 37.4 °F 54% - - North - - N/A   Unknown
2:25 PM 55.4 °F - 39.2 °F 54% 29.85 in 10.0 mi SW 17.3 mph 25.3 mph N/A   Unknown
2:45 PM 51.8 °F - 37.4 °F 58% 29.86 in 10.0 mi West 18.4 mph 26.5 mph N/A   Mostly Cloudy
3:05 PM 53.6 °F - 39.2 °F 58% 29.86 in 10.0 mi WSW 17.3 mph - N/A   Mostly Cloudy
3:25 PM 53.6 °F - 39.2 °F 58% 29.86 in 10.0 mi WSW 19.6 mph 25.3 mph N/A   Mostly Cloudy
4:05 PM 53.6 °F - 37.4 °F 54% 29.86 in 10.0 mi WSW 18.4 mph 24.2 mph N/A   Mostly Cloudy
4:25 PM 53.6 °F - 37.4 °F 54% 29.87 in 10.0 mi WSW 24.2 mph 29.9 mph N/A   Scattered Clouds
4:45 PM 53.6 °F - 37.4 °F 54% 29.87 in 10.0 mi WSW 18.4 mph 24.2 mph N/A   Scattered Clouds
5:05 PM 51.8 °F - 37.4 °F 58% 29.88 in 10.0 mi West 23.0 mph 28.8 mph N/A   Scattered Clouds
5:25 PM 51.8 °F - 37.4 °F 58% 29.88 in 10.0 mi West 19.6 mph - N/A   Mostly Cloudy
5:45 PM 51.8 °F - 37.4 °F 58% 29.88 in 10.0 mi WSW 21.9 mph 25.3 mph N/A   Mostly Cloudy
6:05 PM 51.8 °F - 37.4 °F 58% 29.88 in 10.0 mi WSW 20.7 mph 28.8 mph N/A   Mostly Cloudy
6:25 PM 50.0 °F - 37.4 °F 62% 29.88 in 10.0 mi SW 21.9 mph 28.8 mph N/A   Scattered Clouds
6:45 PM 50.0 °F - 37.4 °F 62% 29.88 in 10.0 mi WSW 21.9 mph 27.6 mph N/A   Scattered Clouds
7:05 PM 50.0 °F - 37.4 °F 62% 29.88 in 10.0 mi WSW 18.4 mph - N/A   Scattered Clouds
7:25 PM 50.0 °F - 37.4 °F 62% 29.89 in 10.0 mi WSW 17.3 mph - N/A   Mostly Cloudy
7:45 PM 50.0 °F - 37.4 °F 62% 29.89 in 10.0 mi WSW 19.6 mph 33.4 mph N/A   Mostly Cloudy
8:05 PM 50.0 °F - 37.4 °F 62% 29.90 in 10.0 mi WSW 18.4 mph 26.5 mph N/A   Overcast
8:25 PM 48.2 °F - 37.4 °F 66% 29.90 in 10.0 mi WSW 16.1 mph 20.7 mph N/A   Overcast
8:45 PM 48.2 °F - 37.4 °F 66% 29.91 in 10.0 mi WSW 13.8 mph 19.6 mph N/A   Overcast
9:05 PM 48.2 °F - 37.4 °F 66% 29.91 in 10.0 mi WSW 13.8 mph - N/A   Mostly Cloudy
9:25 PM 48.2 °F - 37.4 °F 66% 29.90 in 10.0 mi WSW 9.2 mph 17.3 mph N/A   Scattered Clouds
9:45 PM 48.2 °F - 37.4 °F 66% 29.90 in 10.0 mi WSW 12.7 mph - N/A   Mostly Cloudy
10:05 PM 48.2 °F - 39.2 °F 71% 29.90 in 10.0 mi West 15.0 mph 21.9 mph N/A   Mostly Cloudy
10:25 PM 48.2 °F - 39.2 °F 71% 29.91 in 10.0 mi WSW 12.7 mph - N/A   Mostly Cloudy
10:45 PM 48.2 °F - 39.2 °F 71% 29.91 in 10.0 mi WSW 12.7 mph - N/A   Overcast
11:05 PM 48.2 °F - 39.2 °F 71% 29.91 in 10.0 mi WSW 10.4 mph 18.4 mph N/A   Overcast
11:25 PM 48.2 °F - 39.2 °F 71% 29.91 in 10.0 mi WSW 11.5 mph - N/A   Overcast
11:45 PM 48.2 °F - 39.2 °F 71% 29.90 in 10.0 mi WSW 13.8 mph 18.4 mph N/A   Overcast